createdAt,value
2023-03-15T00:00:32.372Z,1.55
2023-03-15T00:03:00.079Z,1.60
2023-03-15T00:05:28.268Z,1.83
2023-03-15T00:07:55.924Z,1.58
2023-03-15T00:10:23.608Z,1.20
2023-03-15T00:12:52.702Z,1.23
2023-03-15T00:15:20.607Z,0.98
2023-03-15T00:17:48.569Z,1.77
2023-03-15T00:20:16.455Z,1.42
2023-03-15T00:22:44.140Z,1.00
2023-03-15T00:25:11.937Z,1.55
2023-03-15T00:27:40.067Z,2.22
2023-03-15T00:30:10.720Z,1.20
2023-03-15T00:32:38.427Z,1.00
2023-03-15T00:35:06.904Z,1.30
2023-03-15T00:37:55.879Z,0.93
2023-03-15T00:40:24.054Z,0.22
2023-03-15T00:42:52.274Z,0.00
2023-03-15T00:45:22.641Z,0.10
2023-03-15T00:47:50.756Z,0.15
2023-03-15T00:50:18.868Z,0.00
2023-03-15T00:52:46.815Z,0.90
2023-03-15T00:55:16.119Z,0.00
2023-03-15T00:57:45.337Z,0.20
2023-03-15T01:00:16.445Z,0.40
2023-03-15T01:02:45.638Z,0.00
2023-03-15T01:05:14.195Z,0.25
2023-03-15T01:07:41.958Z,0.70
2023-03-15T01:10:10.380Z,0.00
2023-03-15T01:12:38.055Z,0.10
2023-03-15T01:15:08.231Z,0.00
2023-03-15T01:17:36.054Z,0.00
2023-03-15T01:20:06.605Z,0.00
2023-03-15T01:22:34.381Z,0.00
2023-03-15T01:25:02.343Z,0.00
2023-03-15T01:27:30.069Z,0.00
2023-03-15T01:29:57.863Z,0.00
2023-03-15T01:32:25.591Z,0.00
2023-03-15T01:34:53.271Z,0.90
2023-03-15T01:37:24.715Z,0.00
2023-03-15T01:39:52.719Z,0.00
2023-03-15T01:42:21.026Z,0.10
2023-03-15T01:44:55.093Z,0.00
2023-03-15T01:47:26.071Z,0.00
2023-03-15T01:49:57.599Z,0.00
2023-03-15T01:52:30.366Z,0.00
2023-03-15T01:55:00.109Z,0.10
2023-03-15T01:57:32.638Z,0.00
2023-03-15T02:00:08.216Z,0.00
2023-03-15T02:02:35.986Z,0.00
2023-03-15T02:05:06.989Z,0.90
2023-03-15T02:07:36.464Z,0.00
2023-03-15T02:10:06.725Z,0.00
2023-03-15T02:12:36.726Z,0.10
2023-03-15T02:15:07.669Z,0.00
2023-03-15T02:17:37.705Z,0.00
2023-03-15T02:20:15.599Z,0.00
2023-03-15T02:22:48.871Z,0.10
2023-03-15T02:25:21.350Z,0.00
2023-03-15T02:27:51.746Z,0.00
2023-03-15T02:30:19.819Z,0.00
2023-03-15T02:32:47.727Z,0.00
2023-03-15T02:35:24.403Z,0.00
2023-03-15T02:37:52.168Z,0.10
2023-03-15T02:40:22.407Z,0.00
2023-03-15T02:42:54.043Z,0.00
2023-03-15T02:45:22.160Z,0.00
2023-03-15T02:47:50.249Z,0.03
2023-03-15T02:50:18.137Z,0.00
2023-03-15T02:52:45.866Z,0.00
2023-03-15T02:55:13.600Z,0.00
2023-03-15T02:57:41.287Z,0.00
2023-03-15T03:00:14.524Z,0.40
2023-03-15T03:02:44.078Z,0.10
2023-03-15T03:05:12.116Z,0.00
2023-03-15T03:07:40.026Z,0.30
2023-03-15T03:10:08.440Z,0.10
2023-03-15T03:12:36.213Z,0.00
2023-03-15T03:15:04.847Z,0.30
2023-03-15T03:17:37.416Z,0.20
2023-03-15T03:20:08.027Z,0.00
2023-03-15T03:22:35.725Z,0.10
2023-03-15T03:25:03.690Z,0.20
2023-03-15T03:27:31.572Z,0.00
2023-03-15T03:30:00.252Z,0.80
2023-03-15T03:32:28.009Z,0.10
2023-03-15T03:34:57.112Z,0.20
2023-03-15T03:37:24.986Z,0.00
2023-03-15T03:39:53.045Z,0.17
2023-03-15T03:42:20.754Z,0.00
2023-03-15T03:44:50.311Z,0.20
2023-03-15T03:47:18.050Z,0.00
2023-03-15T03:49:45.786Z,0.00
2023-03-15T03:52:14.991Z,0.10
2023-03-15T03:54:42.864Z,0.00
2023-03-15T03:57:11.325Z,0.47
2023-03-15T03:59:39.164Z,0.00
2023-03-15T04:02:06.931Z,0.00
2023-03-15T04:04:34.848Z,0.40
2023-03-15T04:07:02.608Z,0.00
2023-03-15T04:09:31.941Z,0.10
2023-03-15T04:12:01.694Z,0.08
2023-03-15T04:14:29.669Z,0.50
2023-03-15T04:16:57.401Z,0.03
2023-03-15T04:19:25.206Z,0.10
2023-03-15T04:21:53.005Z,0.00
2023-03-15T04:24:20.816Z,0.10
2023-03-15T04:26:50.001Z,0.00
2023-03-15T04:29:17.734Z,0.20
2023-03-15T04:31:54.541Z,0.10
2023-03-15T04:34:22.197Z,0.10
2023-03-15T04:36:49.880Z,0.00
2023-03-15T04:39:17.617Z,0.10
2023-03-15T04:41:45.383Z,0.10
2023-03-15T04:44:16.250Z,0.00
2023-03-15T04:46:44.116Z,0.00
2023-03-15T04:49:11.961Z,0.30
2023-03-15T04:51:39.723Z,0.00
2023-03-15T04:54:07.615Z,0.40
2023-03-15T04:56:36.660Z,0.00
2023-03-15T04:59:04.586Z,0.20
2023-03-15T05:01:33.738Z,0.00
2023-03-15T05:04:01.445Z,0.20
2023-03-15T05:06:29.453Z,0.00
2023-03-15T05:08:57.351Z,0.00
2023-03-15T05:11:25.121Z,0.30
2023-03-15T05:13:53.482Z,0.00
2023-03-15T05:16:21.302Z,0.20
2023-03-15T05:18:50.409Z,0.00
2023-03-15T05:21:18.217Z,0.50
2023-03-15T05:23:45.944Z,0.60
2023-03-15T05:26:14.437Z,0.10
2023-03-15T05:28:45.390Z,0.60
2023-03-15T05:31:13.178Z,0.30
2023-03-15T05:33:46.800Z,0.00
2023-03-15T05:36:16.202Z,0.10
2023-03-15T05:38:45.615Z,0.00
2023-03-15T05:41:18.218Z,0.00
2023-03-15T05:43:46.319Z,0.10
2023-03-15T05:46:14.073Z,0.00
2023-03-15T05:48:41.883Z,0.70
2023-03-15T05:51:09.683Z,0.00
2023-03-15T05:53:38.780Z,0.10
2023-03-15T05:56:06.882Z,0.00
2023-03-15T05:58:34.681Z,0.00
2023-03-15T06:01:04.073Z,0.00
2023-03-15T06:03:32.716Z,0.00
2023-03-15T06:06:01.095Z,0.10
2023-03-15T06:08:28.854Z,0.10
2023-03-15T06:10:58.081Z,0.47
2023-03-15T06:13:25.922Z,0.30
2023-03-15T06:15:53.614Z,0.10
2023-03-15T06:18:21.377Z,0.05
2023-03-15T06:20:49.135Z,0.00
2023-03-15T06:23:16.913Z,0.17
2023-03-15T06:25:45.351Z,0.00
2023-03-15T06:28:14.527Z,0.30
2023-03-15T06:30:42.326Z,0.05
2023-03-15T06:33:10.121Z,0.00
2023-03-15T06:35:38.107Z,0.00
2023-03-15T06:38:06.110Z,0.25
2023-03-15T06:40:33.830Z,0.60
2023-03-15T06:43:06.012Z,0.20
2023-03-15T06:45:35.900Z,0.50
2023-03-15T06:48:03.657Z,0.00
2023-03-15T06:50:40.637Z,0.20
2023-03-15T06:53:14.227Z,0.30
2023-03-15T06:55:56.919Z,0.30
2023-03-15T06:58:24.668Z,0.00
2023-03-15T07:00:53.897Z,0.40
2023-03-15T07:03:22.413Z,0.20
2023-03-15T07:05:52.619Z,1.20
2023-03-15T07:08:20.527Z,0.10
2023-03-15T07:10:48.474Z,0.00
2023-03-15T07:13:18.649Z,0.30
2023-03-15T07:15:47.814Z,0.00
2023-03-15T07:18:16.953Z,0.20
2023-03-15T07:20:44.659Z,0.00
2023-03-15T07:23:12.339Z,0.30
2023-03-15T07:25:53.982Z,0.10
2023-03-15T07:28:23.078Z,0.00
2023-03-15T07:30:55.366Z,0.00
2023-03-15T07:33:25.335Z,0.20
2023-03-15T07:35:54.658Z,0.50
2023-03-15T07:38:23.063Z,0.10
2023-03-15T07:40:50.762Z,0.47
2023-03-15T07:43:18.640Z,0.13
2023-03-15T07:45:46.522Z,0.13
2023-03-15T07:48:14.345Z,0.25
2023-03-15T07:50:43.626Z,0.10
2023-03-15T07:53:11.431Z,0.00
2023-03-15T07:55:39.147Z,0.13
2023-03-15T07:58:07.021Z,0.50
2023-03-15T08:00:34.733Z,0.60
2023-03-15T08:03:02.455Z,0.20
2023-03-15T08:05:30.444Z,0.85
2023-03-15T08:07:59.551Z,0.00
2023-03-15T08:10:27.291Z,0.10
2023-03-15T08:12:54.995Z,0.20
2023-03-15T08:15:23.030Z,0.50
2023-03-15T08:17:51.099Z,0.10
2023-03-15T08:20:56.942Z,0.30
2023-03-15T08:23:32.051Z,0.03
2023-03-15T08:25:59.777Z,0.00
2023-03-15T08:28:27.428Z,0.20
2023-03-15T08:30:55.128Z,0.20
2023-03-15T08:33:23.362Z,0.20
2023-03-15T08:35:53.906Z,0.00
2023-03-15T08:38:21.627Z,0.50
2023-03-15T08:40:50.909Z,0.10
2023-03-15T08:43:18.584Z,0.00
2023-03-15T08:46:00.215Z,0.10
2023-03-15T08:48:28.977Z,0.40
2023-03-15T08:50:58.269Z,0.00
2023-03-15T08:53:25.964Z,0.00
2023-03-15T08:55:55.058Z,0.00
2023-03-15T08:58:22.724Z,0.10
2023-03-15T09:00:51.515Z,0.03
2023-03-15T09:03:19.276Z,0.47
2023-03-15T09:05:47.288Z,0.70
2023-03-15T09:08:16.969Z,0.20
2023-03-15T09:10:44.993Z,0.00
2023-03-15T09:13:14.048Z,0.00
2023-03-15T09:15:41.713Z,0.73
2023-03-15T09:18:09.412Z,0.10
2023-03-15T09:20:39.658Z,0.40
2023-03-15T09:23:07.793Z,0.10
2023-03-15T09:25:37.049Z,0.00
2023-03-15T09:28:04.963Z,0.00
2023-03-15T09:30:34.169Z,0.00
2023-03-15T09:33:01.984Z,0.10
2023-03-15T09:35:29.745Z,0.10
2023-03-15T09:37:57.659Z,0.00
2023-03-15T09:40:27.793Z,0.00
2023-03-15T09:43:01.257Z,0.00
2023-03-15T09:45:41.593Z,0.17
2023-03-15T09:48:11.965Z,0.20
2023-03-15T09:50:43.366Z,0.70
2023-03-15T09:53:14.302Z,0.10
2023-03-15T09:55:43.470Z,0.15
2023-03-15T09:58:13.590Z,0.75
2023-03-15T10:00:45.825Z,0.08
2023-03-15T10:03:19.771Z,0.10
2023-03-15T10:05:50.042Z,0.00
2023-03-15T10:08:19.310Z,0.10
2023-03-15T10:10:52.298Z,0.20
2023-03-15T10:13:29.120Z,0.00
2023-03-15T10:16:05.717Z,0.00
2023-03-15T10:18:48.435Z,0.70
2023-03-15T10:21:27.739Z,0.40
2023-03-15T10:23:55.702Z,0.00
2023-03-15T10:26:26.126Z,0.30
2023-03-15T10:28:55.061Z,0.00
2023-03-15T10:31:36.877Z,0.00
2023-03-15T10:34:12.131Z,0.10
2023-03-15T10:36:45.312Z,0.40
2023-03-15T10:39:14.120Z,0.00
2023-03-15T10:41:45.203Z,0.05
2023-03-15T10:44:16.337Z,0.10
2023-03-15T10:47:02.957Z,0.00
2023-03-15T10:49:36.585Z,0.40
2023-03-15T10:52:05.684Z,0.00
2023-03-15T10:54:34.872Z,0.00
2023-03-15T10:57:04.589Z,0.75
2023-03-15T10:59:35.453Z,0.30
2023-03-15T11:02:22.486Z,0.00
2023-03-15T11:04:52.320Z,0.80
2023-03-15T11:07:20.054Z,0.13
2023-03-15T11:13:21.882Z,0.00
2023-03-15T11:15:55.794Z,0.00
2023-03-15T11:18:30.994Z,0.10
2023-03-15T11:20:59.280Z,0.00
2023-03-15T11:23:28.923Z,0.30
2023-03-15T11:25:57.222Z,0.10
2023-03-15T11:28:28.224Z,0.10
2023-03-15T11:30:56.936Z,0.00
2023-03-15T11:33:39.634Z,0.00
2023-03-15T11:36:12.544Z,0.00
2023-03-15T11:38:43.980Z,0.00
2023-03-15T11:41:19.732Z,0.00
2023-03-15T11:43:53.285Z,0.00
2023-03-15T11:46:27.046Z,0.00
2023-03-15T11:49:01.141Z,0.30
2023-03-15T11:51:29.715Z,0.00
2023-03-15T11:54:06.710Z,0.00
2023-03-15T11:56:48.395Z,0.00
2023-03-15T11:59:18.350Z,0.50
2023-03-15T12:02:37.100Z,0.00
2023-03-15T12:05:17.654Z,0.00
2023-03-15T12:08:00.656Z,0.00
2023-03-15T12:10:34.983Z,0.00
2023-03-15T12:13:16.124Z,0.00
2023-03-15T12:15:47.173Z,0.10
2023-03-15T12:18:17.703Z,0.00
2023-03-15T12:20:51.834Z,0.00
2023-03-15T12:23:29.795Z,0.10
2023-03-15T12:25:58.807Z,0.00
2023-03-15T12:28:29.779Z,0.00
2023-03-15T12:31:08.264Z,0.00
2023-03-15T12:33:46.609Z,0.00
2023-03-15T12:36:21.340Z,0.15
2023-03-15T12:39:01.166Z,0.30
2023-03-15T12:41:37.642Z,0.00
2023-03-15T12:44:25.474Z,0.20
2023-03-15T12:46:58.483Z,0.00
2023-03-15T12:49:32.114Z,0.00
2023-03-15T12:52:03.114Z,0.00
2023-03-15T12:54:35.969Z,0.20
2023-03-15T12:57:05.081Z,0.00
2023-03-15T12:59:36.808Z,0.00
2023-03-15T13:02:42.297Z,0.20
2023-03-15T13:05:20.704Z,0.80
2023-03-15T13:08:06.615Z,0.38
2023-03-15T13:10:39.109Z,0.75
2023-03-15T13:13:14.665Z,0.73
2023-03-15T13:15:45.758Z,0.85
2023-03-15T13:18:18.325Z,0.73
2023-03-15T13:20:54.883Z,0.90
2023-03-15T13:23:28.629Z,1.30
2023-03-15T13:26:06.482Z,0.90
2023-03-15T13:28:37.536Z,1.10
2023-03-15T13:31:13.654Z,0.95
2023-03-15T13:33:41.658Z,0.90
2023-03-15T13:36:15.027Z,0.60
2023-03-15T13:38:45.484Z,1.02
2023-03-15T13:41:22.708Z,0.70
2023-03-15T13:43:51.892Z,0.82
2023-03-15T13:49:31.723Z,0.63
2023-03-15T13:51:59.625Z,0.80
2023-03-15T13:54:31.257Z,0.60
2023-03-15T13:57:01.765Z,0.80
2023-03-15T14:05:13.522Z,1.10
2023-03-15T14:07:45.104Z,0.60
2023-03-15T14:10:27.666Z,0.68
2023-03-15T14:12:56.467Z,0.80
2023-03-15T14:15:26.613Z,0.55
2023-03-15T14:18:00.148Z,0.63
2023-03-15T14:20:30.809Z,0.60
2023-03-15T14:23:01.743Z,0.60
2023-03-15T14:25:35.824Z,0.98
2023-03-15T14:28:04.711Z,0.80
2023-03-15T14:30:36.570Z,0.70
2023-03-15T14:33:07.495Z,1.10
2023-03-15T14:35:43.456Z,0.73
2023-03-15T14:38:18.922Z,0.70
2023-03-15T14:40:48.333Z,1.10
2023-03-15T14:43:16.374Z,0.60
2023-03-15T14:45:45.993Z,1.23
2023-03-15T14:48:16.219Z,0.50
2023-03-15T14:50:45.884Z,0.85
2023-03-15T14:53:16.203Z,0.80
2023-03-15T14:55:43.994Z,1.10
2023-03-15T14:58:14.821Z,0.90
2023-03-15T15:00:42.993Z,0.65
2023-03-15T15:03:16.323Z,1.02
2023-03-15T15:05:44.233Z,0.80
2023-03-15T15:08:14.057Z,0.57
2023-03-15T15:10:42.734Z,0.65
2023-03-15T15:13:58.111Z,0.47
2023-03-15T15:16:26.401Z,0.80
2023-03-15T15:18:54.141Z,0.57
2023-03-15T15:21:24.957Z,0.55
2023-03-15T15:24:00.727Z,0.70
2023-03-15T15:26:30.171Z,0.55
2023-03-15T15:29:00.690Z,0.65
2023-03-15T15:31:30.100Z,0.47
2023-03-15T15:33:58.271Z,0.73
2023-03-15T15:36:27.449Z,0.47
2023-03-15T15:38:55.150Z,0.50
2023-03-15T15:41:24.755Z,0.75
2023-03-15T15:44:00.793Z,1.10
2023-03-15T15:46:28.740Z,0.90
2023-03-15T15:48:56.426Z,0.50
2023-03-15T15:51:29.178Z,0.80
2023-03-15T15:53:59.481Z,0.60
2023-03-15T15:56:31.990Z,0.70
2023-03-15T15:59:01.265Z,0.63
2023-03-15T16:01:29.149Z,0.50
2023-03-15T16:03:57.327Z,0.70
2023-03-15T16:06:25.032Z,0.40
2023-03-15T16:08:53.420Z,0.70
2023-03-15T16:11:21.944Z,0.70
2023-03-15T16:13:51.886Z,0.32
2023-03-15T16:16:21.570Z,0.60
2023-03-15T16:18:49.631Z,0.43
2023-03-15T16:21:18.795Z,0.70
2023-03-15T16:23:47.603Z,0.93
2023-03-15T16:26:17.444Z,0.60
2023-03-15T16:28:46.451Z,0.90
2023-03-15T16:31:14.169Z,0.85
2023-03-15T16:33:43.455Z,0.50
2023-03-15T16:36:18.084Z,0.87
2023-03-15T16:38:45.815Z,0.93
2023-03-15T16:41:14.380Z,0.60
2023-03-15T16:43:42.087Z,0.70
2023-03-15T16:46:13.816Z,0.95
2023-03-15T16:48:42.929Z,0.70
2023-03-15T16:51:11.538Z,0.70
2023-03-15T16:53:39.269Z,0.50
2023-03-15T16:56:07.273Z,0.70
2023-03-15T16:58:34.976Z,0.70
2023-03-15T17:01:02.878Z,0.70
2023-03-15T17:03:32.863Z,0.77
2023-03-15T17:06:01.999Z,0.60
2023-03-15T17:08:29.675Z,0.57
2023-03-15T17:10:57.405Z,0.90
2023-03-15T17:13:27.441Z,0.97
2023-03-15T17:15:55.245Z,0.98
2023-03-15T17:18:24.163Z,0.82
2023-03-15T17:20:51.930Z,1.00
2023-03-15T17:23:21.406Z,0.70
2023-03-15T17:25:49.865Z,0.88
2023-03-15T17:28:17.821Z,0.60
2023-03-15T17:30:45.728Z,0.65
2023-03-15T17:33:13.515Z,0.63
2023-03-15T17:35:43.721Z,0.90
2023-03-15T17:38:16.905Z,0.90
2023-03-15T17:40:46.404Z,0.90
2023-03-15T17:43:17.026Z,1.00
2023-03-15T17:45:45.115Z,1.00
2023-03-15T17:48:13.507Z,1.20
2023-03-15T17:50:43.737Z,0.77
2023-03-15T17:53:16.777Z,1.08
2023-03-15T17:55:46.610Z,1.30
2023-03-15T17:58:19.203Z,1.00
2023-03-15T18:00:48.541Z,0.90
2023-03-15T18:03:17.457Z,0.97
2023-03-15T18:05:46.112Z,0.90
2023-03-15T18:08:14.879Z,1.20
2023-03-15T18:10:43.545Z,1.10
2023-03-15T18:13:15.040Z,1.10
2023-03-15T18:15:42.730Z,0.93
2023-03-15T18:18:10.463Z,0.80
2023-03-15T18:20:38.577Z,1.10
2023-03-15T18:23:06.281Z,0.70
2023-03-15T18:25:35.926Z,0.82
2023-03-15T18:28:03.780Z,0.80
2023-03-15T18:30:33.708Z,0.93
2023-03-15T18:33:01.807Z,0.90
2023-03-15T18:35:31.662Z,1.05
2023-03-15T18:37:59.678Z,0.88
2023-03-15T18:40:29.210Z,0.80
2023-03-15T18:42:57.945Z,1.05
2023-03-15T18:45:27.926Z,0.80
2023-03-15T18:47:57.067Z,0.98
2023-03-15T18:50:24.752Z,0.95
2023-03-15T18:52:52.626Z,0.80
2023-03-15T18:55:22.748Z,1.08
2023-03-15T18:57:51.060Z,1.60
2023-03-15T19:00:26.117Z,1.38
2023-03-15T19:02:55.018Z,1.08
2023-03-15T19:05:25.013Z,1.40
2023-03-15T19:07:53.137Z,1.30
2023-03-15T19:10:22.147Z,1.07
2023-03-15T19:12:52.270Z,1.33
2023-03-15T19:15:21.107Z,1.60
2023-03-15T19:17:51.083Z,1.10
2023-03-15T19:20:22.082Z,1.50
2023-03-15T19:22:51.973Z,1.58
2023-03-15T19:25:22.010Z,1.50
2023-03-15T19:27:49.725Z,1.55
2023-03-15T19:30:22.211Z,1.23
2023-03-15T19:32:50.661Z,1.40
2023-03-15T19:35:19.607Z,1.67
2023-03-15T19:37:48.277Z,1.43
2023-03-15T19:40:19.899Z,1.80
2023-03-15T19:42:48.691Z,2.20
2023-03-15T19:45:17.441Z,2.25
2023-03-15T19:47:45.427Z,2.17
2023-03-15T19:50:14.229Z,2.08
2023-03-15T19:52:46.158Z,2.10
2023-03-15T19:55:14.558Z,1.80
2023-03-15T19:58:05.355Z,2.60
2023-03-15T20:00:33.099Z,1.98
2023-03-15T20:03:00.879Z,2.40
2023-03-15T20:05:28.611Z,2.20
2023-03-15T20:07:56.478Z,3.05
2023-03-15T20:10:24.561Z,2.75
2023-03-15T20:12:59.284Z,2.97
2023-03-15T20:15:29.334Z,2.90
2023-03-15T20:17:57.133Z,2.45
2023-03-15T20:20:24.937Z,2.53
2023-03-15T20:22:52.758Z,2.88
2023-03-15T20:25:21.441Z,2.75
2023-03-15T20:27:49.574Z,2.20
2023-03-15T20:30:19.901Z,2.55
2023-03-15T20:32:47.953Z,2.30
2023-03-15T20:35:16.050Z,2.55
2023-03-15T20:37:43.911Z,2.53
2023-03-15T20:40:13.389Z,2.53
2023-03-15T20:42:41.680Z,2.83
2023-03-15T20:45:10.793Z,2.63
2023-03-15T20:47:39.878Z,3.35
2023-03-15T20:50:08.917Z,3.15
2023-03-15T20:52:36.610Z,3.10
2023-03-15T20:55:05.912Z,3.50
2023-03-15T20:57:34.130Z,3.08
2023-03-15T21:00:01.809Z,3.40
2023-03-15T21:02:29.494Z,3.90
2023-03-15T21:04:58.719Z,3.10
2023-03-15T21:07:26.732Z,3.35
2023-03-15T21:09:54.403Z,3.55
2023-03-15T21:12:22.086Z,4.05
2023-03-15T21:14:49.753Z,3.78
2023-03-15T21:17:17.430Z,3.90
2023-03-15T21:20:01.891Z,4.00
2023-03-15T21:22:29.543Z,3.75
2023-03-15T21:24:57.303Z,3.53
2023-03-15T21:27:26.455Z,3.55
2023-03-15T21:29:54.370Z,3.55
2023-03-15T21:32:22.415Z,4.10
2023-03-15T21:34:50.309Z,3.78
2023-03-15T21:37:19.405Z,3.72
2023-03-15T21:39:47.167Z,3.92
2023-03-15T21:42:14.907Z,3.92
2023-03-15T21:44:42.890Z,3.20
2023-03-15T21:47:11.287Z,3.03
2023-03-15T21:49:38.978Z,3.58
2023-03-15T21:52:06.825Z,3.55
2023-03-15T21:54:35.936Z,4.00
2023-03-15T21:57:04.272Z,4.10
2023-03-15T21:59:32.068Z,3.85
2023-03-15T22:02:01.588Z,3.95
2023-03-15T22:04:29.405Z,4.00
2023-03-15T22:06:57.098Z,4.15
2023-03-15T22:09:24.794Z,3.90
2023-03-15T22:11:53.843Z,3.17
2023-03-15T22:14:21.843Z,3.78
2023-03-15T22:16:49.566Z,3.08
2023-03-15T22:19:17.630Z,3.28
2023-03-15T22:21:45.848Z,3.70
2023-03-15T22:24:13.561Z,3.50
2023-03-15T22:26:54.101Z,3.42
2023-03-15T22:29:21.793Z,3.08
2023-03-15T22:31:49.470Z,2.90
2023-03-15T22:34:17.147Z,3.67
2023-03-15T22:36:45.115Z,3.13
2023-03-15T22:39:14.365Z,2.85
2023-03-15T22:41:42.053Z,3.17
2023-03-15T22:44:11.156Z,3.05
2023-03-15T22:46:38.906Z,2.80
2023-03-15T22:49:06.618Z,3.38
2023-03-15T22:51:34.821Z,3.17
2023-03-15T22:54:02.519Z,3.17
2023-03-15T22:56:30.181Z,2.90
2023-03-15T22:58:57.897Z,2.90
2023-03-15T23:01:27.225Z,3.42
2023-03-15T23:03:54.989Z,3.17
2023-03-15T23:06:22.963Z,3.10
2023-03-15T23:08:50.957Z,3.20
2023-03-15T23:11:18.730Z,3.15
2023-03-15T23:13:48.543Z,3.23
2023-03-15T23:16:16.609Z,2.92
2023-03-15T23:18:45.876Z,3.58
2023-03-15T23:21:14.906Z,3.75
2023-03-15T23:23:43.838Z,3.17
2023-03-15T23:26:15.292Z,3.63
2023-03-15T23:28:43.145Z,3.53
2023-03-15T23:31:10.846Z,3.65
2023-03-15T23:33:38.689Z,3.63
2023-03-15T23:36:08.681Z,3.80
2023-03-15T23:38:36.392Z,3.43
2023-03-15T23:41:05.086Z,3.78
2023-03-15T23:43:35.348Z,3.63
2023-03-15T23:46:05.070Z,3.45
2023-03-15T23:48:37.088Z,3.43
2023-03-15T23:51:05.073Z,3.50
2023-03-15T23:53:34.690Z,3.55
2023-03-15T23:56:02.477Z,3.53
2023-03-15T23:58:30.269Z,3.20
